createdAt,value
2017-09-10T00:02:08.796Z,11.70
2017-09-10T00:04:36.454Z,11.78
2017-09-10T00:07:03.929Z,12.22
2017-09-10T00:09:31.385Z,12.46
2017-09-10T00:11:58.881Z,12.29
2017-09-10T00:14:26.324Z,12.52
2017-09-10T00:16:53.829Z,12.92
2017-09-10T00:19:21.285Z,12.51
2017-09-10T00:21:48.761Z,12.31
2017-09-10T00:24:16.220Z,12.35
2017-09-10T00:26:43.761Z,12.37
2017-09-10T00:29:11.312Z,12.53
2017-09-10T00:31:38.892Z,12.69
2017-09-10T00:34:06.481Z,12.48
2017-09-10T00:36:33.961Z,12.51
2017-09-10T00:39:01.416Z,12.44
2017-09-10T00:41:29.302Z,12.42
2017-09-10T00:43:56.869Z,12.15
2017-09-10T00:46:24.354Z,12.33
2017-09-10T00:48:51.815Z,12.31
2017-09-10T00:51:19.337Z,12.16
2017-09-10T00:53:47.304Z,12.08
2017-09-10T00:56:14.782Z,12.09
2017-09-10T00:58:42.228Z,11.89
2017-09-10T01:01:09.676Z,11.72
2017-09-10T01:03:37.157Z,11.64
2017-09-10T01:06:04.745Z,11.69
2017-09-10T01:08:32.250Z,11.72
2017-09-10T01:10:59.812Z,11.66
2017-09-10T01:13:27.284Z,11.68
2017-09-10T01:15:54.731Z,11.34
2017-09-10T01:18:22.207Z,11.41
2017-09-10T01:20:50.305Z,11.32
2017-09-10T01:23:17.817Z,11.25
2017-09-10T01:25:45.264Z,11.10
2017-09-10T01:28:12.791Z,11.17
2017-09-10T01:30:40.281Z,11.22
2017-09-10T01:33:07.820Z,11.20
2017-09-10T01:35:35.314Z,10.95
2017-09-10T01:38:02.780Z,10.80
2017-09-10T01:40:30.237Z,10.88
2017-09-10T01:42:57.768Z,10.92
2017-09-10T01:45:25.642Z,10.90
2017-09-10T01:47:53.112Z,10.97
2017-09-10T01:50:20.580Z,10.73
2017-09-10T01:52:48.063Z,10.56
2017-09-10T01:55:15.544Z,10.49
2017-09-10T01:57:43.373Z,10.65
2017-09-10T02:00:10.874Z,10.65
2017-09-10T02:02:38.349Z,10.72
2017-09-10T02:05:05.828Z,10.46
2017-09-10T02:07:33.365Z,10.52
2017-09-10T02:10:01.071Z,10.45
2017-09-10T02:12:28.525Z,10.40
2017-09-10T02:14:55.997Z,10.35
2017-09-10T02:17:23.489Z,10.39
2017-09-10T02:19:50.973Z,10.39
2017-09-10T02:22:18.641Z,10.17
2017-09-10T02:24:46.153Z,10.23
2017-09-10T02:27:13.646Z,10.33
2017-09-10T02:29:41.213Z,10.22
2017-09-10T02:32:08.663Z,10.32
2017-09-10T02:34:36.162Z,10.18
2017-09-10T02:37:03.623Z,10.07
2017-09-10T02:39:31.117Z,10.03
2017-09-10T02:41:58.673Z,10.06
2017-09-10T02:44:26.226Z,10.16
2017-09-10T02:46:53.717Z,10.23
2017-09-10T02:49:21.202Z,10.07
2017-09-10T02:51:48.647Z,9.92
2017-09-10T02:54:16.131Z,10.02
2017-09-10T02:56:43.613Z,9.99
2017-09-10T02:59:11.297Z,9.98
2017-09-10T03:01:38.885Z,9.93
2017-09-10T03:04:06.370Z,9.80
2017-09-10T03:06:33.820Z,9.86
2017-09-10T03:09:01.306Z,9.90
2017-09-10T03:11:28.798Z,10.02
2017-09-10T03:13:56.267Z,10.12
2017-09-10T03:16:23.748Z,10.01
2017-09-10T03:18:51.196Z,10.15
2017-09-10T03:21:18.669Z,10.32
2017-09-10T03:23:46.131Z,10.52
2017-09-10T03:26:13.628Z,10.53
2017-09-10T03:28:41.084Z,10.80
2017-09-10T03:31:08.583Z,10.70
2017-09-10T03:33:36.085Z,10.81
2017-09-10T03:36:03.645Z,10.81
2017-09-10T03:38:31.096Z,11.00
2017-09-10T03:40:58.568Z,11.07
2017-09-10T03:43:26.024Z,11.21
2017-09-10T03:45:53.560Z,11.08
2017-09-10T03:48:21.120Z,11.20
2017-09-10T03:50:48.588Z,11.29
2017-09-10T03:53:16.041Z,11.27
2017-09-10T03:55:43.541Z,11.33
2017-09-10T03:58:11.005Z,11.34
2017-09-10T04:00:38.501Z,11.35
2017-09-10T04:03:05.954Z,11.36
2017-09-10T04:05:33.410Z,11.31
2017-09-10T04:08:00.880Z,11.31
2017-09-10T04:10:28.384Z,11.36
2017-09-10T04:12:55.886Z,11.29
2017-09-10T04:15:23.348Z,11.38
2017-09-10T04:17:50.840Z,11.39
2017-09-10T04:20:18.302Z,11.41
2017-09-10T04:22:45.773Z,11.37
2017-09-10T04:25:13.467Z,11.49
2017-09-10T04:27:41.037Z,11.35
2017-09-10T04:30:08.606Z,11.42
2017-09-10T04:32:36.157Z,11.38
2017-09-10T04:35:03.611Z,11.36
2017-09-10T04:37:31.627Z,11.36
2017-09-10T04:39:59.115Z,11.37
2017-09-10T04:42:26.593Z,11.44
2017-09-10T04:44:54.069Z,11.51
2017-09-10T04:47:21.553Z,11.45
2017-09-10T04:49:49.000Z,11.29
2017-09-10T04:52:16.525Z,10.42
2017-09-10T04:54:44.000Z,10.48
2017-09-10T04:57:11.471Z,10.17
2017-09-10T04:59:39.005Z,10.16
2017-09-10T05:02:06.469Z,10.36
2017-09-10T05:04:34.013Z,10.42
2017-09-10T05:07:01.579Z,10.25
2017-09-10T05:09:29.062Z,10.46
2017-09-10T05:11:56.512Z,10.54
2017-09-10T05:14:24.048Z,10.82
2017-09-10T05:16:51.537Z,10.87
2017-09-10T05:19:19.013Z,11.10
2017-09-10T05:21:46.541Z,10.97
2017-09-10T05:24:14.073Z,11.09
2017-09-10T05:26:41.541Z,11.16
2017-09-10T05:29:09.100Z,11.16
2017-09-10T05:31:36.558Z,11.24
2017-09-10T05:34:04.077Z,11.08
2017-09-10T05:36:31.552Z,11.16
2017-09-10T05:38:59.026Z,10.87
2017-09-10T05:41:26.573Z,10.87
2017-09-10T05:43:54.156Z,10.91
2017-09-10T05:46:21.613Z,10.87
2017-09-10T05:48:49.105Z,11.19
2017-09-10T05:51:16.561Z,11.28
2017-09-10T05:53:44.041Z,11.28
2017-09-10T05:56:11.495Z,10.92
2017-09-10T05:58:39.080Z,11.03
2017-09-10T06:01:06.532Z,11.13
2017-09-10T06:03:34.025Z,11.30
2017-09-10T06:06:01.502Z,11.37
2017-09-10T06:08:29.092Z,11.51
2017-09-10T06:10:56.572Z,11.74
2017-09-10T06:13:24.131Z,11.76
2017-09-10T06:15:51.618Z,11.85
2017-09-10T06:18:19.105Z,11.88
2017-09-10T06:20:46.572Z,11.73
2017-09-10T06:23:14.070Z,11.75
2017-09-10T06:25:41.648Z,11.99
2017-09-10T06:28:09.105Z,12.02
2017-09-10T06:30:36.634Z,11.88
2017-09-10T06:33:04.100Z,11.81
2017-09-10T06:35:31.563Z,11.79
2017-09-10T06:37:59.022Z,11.83
2017-09-10T06:40:26.573Z,11.86
2017-09-10T06:42:54.045Z,11.85
2017-09-10T06:45:21.529Z,11.78
2017-09-10T06:47:48.988Z,11.98
2017-09-10T06:50:16.461Z,12.00
2017-09-10T06:52:43.951Z,12.26
2017-09-10T06:55:11.428Z,12.12
2017-09-10T06:57:38.952Z,12.23
2017-09-10T07:00:06.438Z,12.22
2017-09-10T07:02:33.972Z,12.37
2017-09-10T07:05:01.433Z,12.40
2017-09-10T07:07:28.911Z,12.63
2017-09-10T07:09:56.373Z,12.79
2017-09-10T07:12:23.852Z,13.11
2017-09-10T07:14:51.309Z,13.17
2017-09-10T07:17:18.809Z,13.31
2017-09-10T07:19:46.256Z,13.25
2017-09-10T07:22:13.725Z,13.45
2017-09-10T07:24:41.231Z,13.78
2017-09-10T07:27:08.744Z,13.59
2017-09-10T07:29:36.197Z,13.60
2017-09-10T07:32:03.680Z,13.86
2017-09-10T07:34:31.221Z,14.15
2017-09-10T07:36:59.168Z,14.21
2017-09-10T07:39:26.659Z,14.36
2017-09-10T07:41:54.127Z,15.11
2017-09-10T07:44:21.585Z,15.05
2017-09-10T07:46:49.093Z,15.00
2017-09-10T07:49:16.849Z,14.97
2017-09-10T07:51:44.344Z,14.95
2017-09-10T07:54:11.837Z,14.78
2017-09-10T07:56:39.320Z,14.26
2017-09-10T07:59:06.781Z,14.55
2017-09-10T08:01:34.264Z,14.40
2017-09-10T08:04:01.781Z,14.61
2017-09-10T08:06:29.242Z,15.00
2017-09-10T08:08:56.716Z,14.67
2017-09-10T08:11:24.164Z,14.82
2017-09-10T08:13:51.652Z,15.03
2017-09-10T08:16:19.125Z,15.23
2017-09-10T08:18:46.610Z,15.52
2017-09-10T08:21:14.063Z,15.38
2017-09-10T08:23:41.527Z,15.36
2017-09-10T08:26:09.029Z,15.29
2017-09-10T08:28:36.584Z,15.46
2017-09-10T08:31:04.146Z,15.74
2017-09-10T08:33:31.704Z,15.44
2017-09-10T08:35:59.261Z,14.89
2017-09-10T08:38:28.031Z,15.12
2017-09-10T08:40:55.572Z,15.04
2017-09-10T08:43:23.049Z,15.31
2017-09-10T08:45:50.501Z,15.60
2017-09-10T08:48:18.027Z,15.50
2017-09-10T08:50:45.481Z,15.41
2017-09-10T08:53:12.988Z,15.49
2017-09-10T08:55:40.445Z,15.58
2017-09-10T08:58:07.912Z,15.78
2017-09-10T09:00:35.405Z,15.88
2017-09-10T09:03:02.885Z,16.08
2017-09-10T09:05:30.380Z,16.08
2017-09-10T09:07:57.839Z,16.19
2017-09-10T09:10:25.354Z,16.37
2017-09-10T09:12:53.094Z,16.51
2017-09-10T09:15:20.585Z,16.59
2017-09-10T09:17:48.069Z,16.57
2017-09-10T09:20:15.624Z,16.56
2017-09-10T09:22:43.191Z,16.42
2017-09-10T09:25:10.669Z,16.75
2017-09-10T09:27:38.129Z,16.74
2017-09-10T09:30:05.608Z,16.81
2017-09-10T09:32:33.064Z,16.56
2017-09-10T09:35:00.570Z,16.64
2017-09-10T09:37:28.045Z,16.71
2017-09-10T09:39:55.519Z,16.56
2017-09-10T09:42:22.977Z,16.54
2017-09-10T09:44:50.460Z,16.55
2017-09-10T09:47:17.934Z,16.69
2017-09-10T09:49:45.453Z,16.50
2017-09-10T09:52:12.937Z,16.85
2017-09-10T09:54:40.437Z,16.83
2017-09-10T09:57:07.884Z,16.76
2017-09-10T09:59:35.401Z,17.05
2017-09-10T10:02:02.918Z,17.17
2017-09-10T10:04:30.465Z,17.05
2017-09-10T10:06:57.945Z,17.51
2017-09-10T10:09:25.415Z,17.75
2017-09-10T10:11:52.893Z,17.88
2017-09-10T10:14:20.349Z,17.90
2017-09-10T10:16:47.829Z,17.93
2017-09-10T10:19:15.281Z,17.98
2017-09-10T10:21:42.753Z,17.76
2017-09-10T10:24:10.224Z,17.86
2017-09-10T10:26:37.778Z,18.12
2017-09-10T10:29:05.326Z,18.64
2017-09-10T10:31:32.888Z,18.74
2017-09-10T10:34:00.332Z,18.86
2017-09-10T10:36:28.080Z,18.70
2017-09-10T10:38:55.569Z,19.09
2017-09-10T10:41:23.049Z,18.59
2017-09-10T10:43:50.509Z,18.96
2017-09-10T10:46:18.000Z,18.91
2017-09-10T10:48:45.484Z,19.23
2017-09-10T10:51:12.952Z,19.41
2017-09-10T10:53:40.517Z,19.30
2017-09-10T10:56:08.068Z,19.53
2017-09-10T10:58:35.544Z,19.78
2017-09-10T11:01:03.082Z,19.39
2017-09-10T11:03:30.549Z,19.49
2017-09-10T11:05:58.099Z,19.78
2017-09-10T11:08:25.585Z,19.45
2017-09-10T11:10:53.163Z,19.52
2017-09-10T11:13:20.633Z,19.62
2017-09-10T11:15:48.133Z,19.42
2017-09-10T11:18:15.685Z,19.27
2017-09-10T11:20:43.132Z,19.60
2017-09-10T11:23:10.648Z,19.82
2017-09-10T11:25:38.097Z,19.70
2017-09-10T11:28:06.437Z,20.00
2017-09-10T11:30:33.990Z,19.97
2017-09-10T11:33:01.465Z,19.69
2017-09-10T11:35:29.006Z,19.95
2017-09-10T11:37:56.868Z,19.93
2017-09-10T11:40:24.317Z,20.21
2017-09-10T11:42:51.864Z,19.93
2017-09-10T11:45:19.349Z,20.32
2017-09-10T11:47:46.855Z,20.13
2017-09-10T11:50:14.313Z,20.13
2017-09-10T11:52:41.829Z,20.47
2017-09-10T11:55:09.285Z,20.10
2017-09-10T11:57:36.756Z,20.45
2017-09-10T12:00:04.225Z,20.41
2017-09-10T12:02:31.685Z,20.17
2017-09-10T12:04:59.165Z,20.37
2017-09-10T12:07:26.617Z,20.09
2017-09-10T12:09:54.091Z,20.40
2017-09-10T12:12:21.554Z,20.26
2017-09-10T12:14:49.129Z,20.42
2017-09-10T12:17:16.618Z,20.32
2017-09-10T12:19:44.162Z,20.06
2017-09-10T12:22:11.617Z,20.17
2017-09-10T12:24:39.360Z,20.23
2017-09-10T12:27:06.816Z,20.13
2017-09-10T12:29:34.381Z,20.45
2017-09-10T12:32:01.855Z,20.48
2017-09-10T12:34:29.400Z,20.10
2017-09-10T12:36:56.888Z,20.18
2017-09-10T12:39:24.364Z,20.17
2017-09-10T12:41:51.833Z,19.95
2017-09-10T12:44:19.325Z,20.12
2017-09-10T12:46:46.790Z,20.34
2017-09-10T12:49:14.264Z,20.29
2017-09-10T12:51:41.716Z,20.19
2017-09-10T12:54:09.257Z,20.13
2017-09-10T12:56:36.707Z,20.08
2017-09-10T12:59:04.181Z,20.00
2017-09-10T13:01:31.732Z,20.00
2017-09-10T13:03:59.208Z,20.05
2017-09-10T13:06:26.748Z,19.86
2017-09-10T13:08:54.223Z,19.91
2017-09-10T13:11:21.713Z,19.83
2017-09-10T13:13:49.168Z,19.83
2017-09-10T13:16:16.652Z,19.82
2017-09-10T13:18:44.128Z,19.58
2017-09-10T13:21:11.689Z,19.64
2017-09-10T13:23:39.255Z,19.82
2017-09-10T13:26:06.761Z,19.58
2017-09-10T13:28:34.246Z,19.88
2017-09-10T13:31:01.724Z,19.44
2017-09-10T13:33:29.273Z,19.47
2017-09-10T13:35:57.293Z,19.38
2017-09-10T13:38:24.760Z,19.62
2017-09-10T13:40:52.239Z,19.33
2017-09-10T13:43:19.698Z,19.43
2017-09-10T13:45:47.282Z,19.18
2017-09-10T13:48:14.841Z,19.29
2017-09-10T13:50:42.370Z,19.22
2017-09-10T13:53:09.828Z,19.36
2017-09-10T13:55:37.313Z,19.08
2017-09-10T13:58:04.777Z,19.21
2017-09-10T14:00:32.251Z,19.10
2017-09-10T14:02:59.797Z,19.21
2017-09-10T14:05:27.252Z,19.10
2017-09-10T14:07:54.724Z,19.06
2017-09-10T14:10:22.183Z,19.14
2017-09-10T14:12:49.676Z,19.28
2017-09-10T14:15:17.156Z,19.12
2017-09-10T14:17:44.716Z,19.17
2017-09-10T14:20:12.169Z,19.12
2017-09-10T14:22:39.732Z,19.28
2017-09-10T14:25:07.193Z,19.19
2017-09-10T14:27:34.672Z,19.53
2017-09-10T14:30:02.112Z,19.41
2017-09-10T14:32:29.585Z,19.40
2017-09-10T14:34:57.469Z,19.30
2017-09-10T14:37:24.946Z,19.42
2017-09-10T14:39:52.444Z,19.49
2017-09-10T14:42:20.001Z,19.56
2017-09-10T14:44:47.561Z,19.39
2017-09-10T14:47:15.367Z,19.67
2017-09-10T14:49:42.880Z,19.46
2017-09-10T14:52:10.365Z,19.58
2017-09-10T14:54:37.853Z,19.64
2017-09-10T14:57:05.338Z,19.59
2017-09-10T14:59:32.789Z,19.76
2017-09-10T15:02:00.267Z,19.58
2017-09-10T15:04:27.733Z,19.41
2017-09-10T15:06:55.209Z,19.67
2017-09-10T15:09:22.684Z,19.60
2017-09-10T15:11:50.156Z,19.53
2017-09-10T15:14:17.703Z,19.50
2017-09-10T15:16:45.160Z,19.48
2017-09-10T15:19:12.769Z,19.59
2017-09-10T15:21:40.249Z,19.26
2017-09-10T15:24:07.745Z,19.15
2017-09-10T15:26:35.252Z,19.20
2017-09-10T15:29:02.728Z,19.21
2017-09-10T15:31:30.180Z,19.09
2017-09-10T15:33:57.665Z,18.99
2017-09-10T15:36:25.125Z,18.95
2017-09-10T15:38:52.607Z,19.05
2017-09-10T15:41:20.070Z,18.89
2017-09-10T15:43:47.577Z,19.09
2017-09-10T15:46:15.052Z,19.23
2017-09-10T15:48:42.560Z,19.23
2017-09-10T15:51:10.113Z,19.07
2017-09-10T15:53:37.669Z,19.01
2017-09-10T15:56:05.129Z,19.02
2017-09-10T15:58:32.633Z,19.26
2017-09-10T16:01:00.081Z,19.20
2017-09-10T16:03:27.597Z,19.19
2017-09-10T16:05:55.075Z,19.16
2017-09-10T16:08:22.541Z,19.15
2017-09-10T16:10:50.961Z,19.26
2017-09-10T16:13:18.422Z,19.33
2017-09-10T16:15:45.904Z,19.33
2017-09-10T16:18:13.464Z,19.47
2017-09-10T16:20:41.053Z,19.20
2017-09-10T16:23:08.782Z,19.28
2017-09-10T16:25:36.255Z,19.04
2017-09-10T16:28:03.829Z,19.20
2017-09-10T16:30:31.366Z,19.11
2017-09-10T16:32:58.820Z,19.19
2017-09-10T16:35:26.563Z,18.95
2017-09-10T16:37:54.007Z,19.20
2017-09-10T16:40:21.492Z,19.11
2017-09-10T16:42:48.957Z,18.92
2017-09-10T16:45:16.517Z,18.93
2017-09-10T16:47:43.965Z,18.87
2017-09-10T16:50:11.468Z,19.32
2017-09-10T16:52:38.983Z,18.88
2017-09-10T16:55:06.547Z,18.83
2017-09-10T16:57:34.110Z,18.70
2017-09-10T17:00:01.656Z,18.56
2017-09-10T17:02:29.127Z,18.69
2017-09-10T17:04:56.619Z,18.45
2017-09-10T17:07:24.135Z,18.43
2017-09-10T17:09:51.593Z,18.16
2017-09-10T17:12:19.073Z,18.28
2017-09-10T17:14:46.612Z,18.31
2017-09-10T17:17:14.097Z,18.24
2017-09-10T17:19:41.543Z,18.24
2017-09-10T17:22:09.019Z,18.11
2017-09-10T17:24:36.475Z,18.18
2017-09-10T17:27:03.956Z,17.96
2017-09-10T17:29:31.404Z,18.17
2017-09-10T17:31:58.877Z,18.02
2017-09-10T17:34:27.168Z,17.97
2017-09-10T17:36:54.733Z,17.80
2017-09-10T17:39:22.214Z,17.81
2017-09-10T17:41:49.700Z,17.74
2017-09-10T17:44:17.169Z,17.65
2017-09-10T17:46:44.673Z,17.42
2017-09-10T17:49:12.217Z,17.39
2017-09-10T17:51:39.795Z,17.73
2017-09-10T17:54:07.254Z,17.57
2017-09-10T17:56:34.803Z,17.64
2017-09-10T17:59:02.350Z,17.48
2017-09-10T18:01:29.859Z,17.32
2017-09-10T18:03:57.373Z,17.24
2017-09-10T18:06:24.924Z,17.23
2017-09-10T18:08:52.485Z,17.05
2017-09-10T18:11:19.939Z,16.68
2017-09-10T18:13:47.414Z,16.46
2017-09-10T18:16:14.870Z,16.10
2017-09-10T18:18:42.343Z,16.10
2017-09-10T18:21:09.892Z,16.18
2017-09-10T18:23:37.364Z,16.01
2017-09-10T18:26:04.827Z,15.89
2017-09-10T18:28:32.307Z,15.84
2017-09-10T18:30:59.763Z,15.69
2017-09-10T18:33:27.279Z,15.55
2017-09-10T18:35:54.763Z,15.52
2017-09-10T18:38:22.228Z,15.32
2017-09-10T18:40:49.683Z,15.35
2017-09-10T18:43:17.160Z,15.50
2017-09-10T18:45:44.617Z,15.46
2017-09-10T18:48:12.109Z,15.78
2017-09-10T18:50:39.581Z,15.85
2017-09-10T18:53:07.061Z,15.94
2017-09-10T18:55:34.572Z,15.97
2017-09-10T18:58:02.057Z,16.07
2017-09-10T19:00:29.523Z,16.03
2017-09-10T19:02:57.049Z,15.89
2017-09-10T19:05:24.528Z,15.86
2017-09-10T19:07:52.004Z,15.80
2017-09-10T19:10:19.524Z,15.83
2017-09-10T19:12:47.383Z,15.87
2017-09-10T19:15:14.949Z,15.87
2017-09-10T19:17:42.428Z,15.93
2017-09-10T19:20:09.961Z,15.72
2017-09-10T19:22:37.453Z,15.66
2017-09-10T19:25:05.122Z,15.63
2017-09-10T19:27:32.605Z,15.61
2017-09-10T19:30:00.121Z,15.52
2017-09-10T19:32:27.661Z,15.49
2017-09-10T19:34:55.135Z,15.38
2017-09-10T19:37:23.053Z,15.23
2017-09-10T19:39:50.577Z,15.21
2017-09-10T19:42:18.082Z,15.36
2017-09-10T19:44:45.578Z,15.17
2017-09-10T19:47:13.041Z,15.03
2017-09-10T19:49:40.525Z,15.07
2017-09-10T19:52:08.013Z,14.63
2017-09-10T19:54:35.587Z,14.45
2017-09-10T19:57:03.167Z,14.29
2017-09-10T19:59:30.645Z,14.20
2017-09-10T20:01:58.202Z,14.12
2017-09-10T20:04:25.731Z,13.93
2017-09-10T20:06:53.204Z,13.94
2017-09-10T20:09:20.717Z,14.02
2017-09-10T20:11:48.185Z,14.38
2017-09-10T20:14:16.057Z,14.26
2017-09-10T20:16:43.611Z,13.97
2017-09-10T20:19:11.070Z,13.81
2017-09-10T20:21:38.549Z,13.88
2017-09-10T20:24:06.060Z,13.88
2017-09-10T20:26:33.535Z,13.64
2017-09-10T20:29:01.098Z,13.33
2017-09-10T20:31:28.648Z,13.33
2017-09-10T20:33:56.114Z,12.62
2017-09-10T20:36:23.609Z,12.88
2017-09-10T20:38:51.103Z,13.18
2017-09-10T20:41:18.577Z,13.15
2017-09-10T20:43:46.038Z,13.08
2017-09-10T20:46:13.596Z,13.15
2017-09-10T20:48:41.073Z,13.44
2017-09-10T20:51:08.551Z,13.50
2017-09-10T20:53:36.013Z,13.53
2017-09-10T20:56:03.501Z,13.55
2017-09-10T20:58:30.957Z,13.33
2017-09-10T21:00:58.449Z,12.92
2017-09-10T21:03:25.912Z,12.84
2017-09-10T21:05:53.389Z,12.79
2017-09-10T21:08:20.872Z,12.83
2017-09-10T21:10:48.355Z,13.02
2017-09-10T21:13:15.825Z,13.20
2017-09-10T21:15:43.289Z,13.18
2017-09-10T21:18:10.765Z,13.23
2017-09-10T21:20:38.222Z,13.32
2017-09-10T21:23:05.696Z,13.33
2017-09-10T21:25:33.354Z,13.43
2017-09-10T21:28:00.823Z,13.24
2017-09-10T21:30:28.318Z,12.80
2017-09-10T21:32:56.132Z,12.55
2017-09-10T21:35:23.650Z,12.47
2017-09-10T21:37:51.149Z,12.52
2017-09-10T21:40:18.680Z,12.33
2017-09-10T21:42:46.164Z,12.35
2017-09-10T21:45:13.669Z,12.51
2017-09-10T21:47:41.389Z,12.64
2017-09-10T21:50:09.045Z,12.80
2017-09-10T21:52:36.525Z,12.96
2017-09-10T21:55:04.048Z,13.05
2017-09-10T21:57:31.524Z,13.12
2017-09-10T21:59:58.973Z,13.36
2017-09-10T22:02:26.529Z,13.47
2017-09-10T22:04:53.972Z,13.55
2017-09-10T22:07:21.445Z,13.56
2017-09-10T22:09:48.950Z,13.70
2017-09-10T22:12:16.397Z,13.85
2017-09-10T22:14:43.981Z,13.87
2017-09-10T22:17:11.433Z,13.88
2017-09-10T22:19:38.912Z,13.78
2017-09-10T22:22:06.361Z,13.80
2017-09-10T22:24:33.892Z,13.82
2017-09-10T22:27:01.381Z,13.84
2017-09-10T22:29:28.856Z,13.93
2017-09-10T22:31:56.321Z,14.05
2017-09-10T22:34:23.821Z,14.00
2017-09-10T22:36:51.432Z,14.07
2017-09-10T22:39:18.905Z,14.12
2017-09-10T22:41:46.429Z,14.04
2017-09-10T22:44:13.888Z,13.95
2017-09-10T22:46:41.368Z,13.90
2017-09-10T22:49:09.688Z,14.01
2017-09-10T22:51:37.133Z,14.02
2017-09-10T22:54:04.600Z,13.95
2017-09-10T22:56:32.188Z,14.01
2017-09-10T22:58:59.705Z,13.88
2017-09-10T23:01:27.755Z,13.93
2017-09-10T23:03:55.229Z,13.92
2017-09-10T23:06:22.705Z,13.95
2017-09-10T23:08:50.169Z,13.84
2017-09-10T23:11:17.653Z,13.94
2017-09-10T23:13:45.323Z,13.84
2017-09-10T23:16:12.823Z,13.80
2017-09-10T23:18:40.277Z,13.67
2017-09-10T23:21:07.782Z,13.59
2017-09-10T23:23:35.238Z,13.51
2017-09-10T23:26:02.923Z,13.62
2017-09-10T23:28:30.425Z,13.62
2017-09-10T23:30:57.896Z,13.85
2017-09-10T23:33:25.353Z,13.57
2017-09-10T23:35:52.830Z,13.32
2017-09-10T23:38:20.360Z,13.07
2017-09-10T23:40:47.909Z,12.96
2017-09-10T23:43:15.361Z,12.82
2017-09-10T23:45:42.831Z,12.47
2017-09-10T23:48:10.279Z,12.41
2017-09-10T23:50:37.837Z,12.49
2017-09-10T23:53:05.416Z,12.51
2017-09-10T23:55:32.889Z,12.50
2017-09-10T23:58:00.419Z,12.41
